sensor_id;sensor_type;location;lat;lon;timestamp;P1;durP1;ratioP1;P2;durP2;ratioP2
12214;SDS011;6170;42.206;24.142;2022-10-15T00:02:20;13.35;;;9.30;;
12214;SDS011;6170;42.206;24.142;2022-10-15T00:04:47;10.32;;;8.98;;
12214;SDS011;6170;42.206;24.142;2022-10-15T00:07:14;10.70;;;9.30;;
12214;SDS011;6170;42.206;24.142;2022-10-15T00:09:41;12.40;;;9.10;;
12214;SDS011;6170;42.206;24.142;2022-10-15T00:12:08;11.48;;;8.50;;
12214;SDS011;6170;42.206;24.142;2022-10-15T00:14:35;8.93;;;7.85;;
12214;SDS011;6170;42.206;24.142;2022-10-15T00:17:03;8.88;;;7.97;;
12214;SDS011;6170;42.206;24.142;2022-10-15T00:19:31;11.15;;;7.63;;
12214;SDS011;6170;42.206;24.142;2022-10-15T00:21:58;9.13;;;7.50;;
12214;SDS011;6170;42.206;24.142;2022-10-15T00:24:26;10.60;;;7.55;;
12214;SDS011;6170;42.206;24.142;2022-10-15T00:26:53;11.10;;;8.13;;
12214;SDS011;6170;42.206;24.142;2022-10-15T00:29:20;10.27;;;9.02;;
12214;SDS011;6170;42.206;24.142;2022-10-15T00:31:47;15.13;;;8.77;;
12214;SDS011;6170;42.206;24.142;2022-10-15T00:34:14;11.57;;;8.40;;
12214;SDS011;6170;42.206;24.142;2022-10-15T00:36:43;11.57;;;8.25;;
12214;SDS011;6170;42.206;24.142;2022-10-15T00:39:10;12.88;;;8.35;;
12214;SDS011;6170;42.206;24.142;2022-10-15T00:41:39;10.05;;;7.75;;
12214;SDS011;6170;42.206;24.142;2022-10-15T00:47:12;10.63;;;7.15;;
12214;SDS011;6170;42.206;24.142;2022-10-15T00:49:43;9.30;;;7.78;;
12214;SDS011;6170;42.206;24.142;2022-10-15T00:52:17;9.35;;;7.45;;
12214;SDS011;6170;42.206;24.142;2022-10-15T00:54:50;12.65;;;7.97;;
12214;SDS011;6170;42.206;24.142;2022-10-15T00:57:21;11.45;;;7.43;;
12214;SDS011;6170;42.206;24.142;2022-10-15T00:59:51;10.25;;;7.20;;
12214;SDS011;6170;42.206;24.142;2022-10-15T01:02:22;9.07;;;7.47;;
12214;SDS011;6170;42.206;24.142;2022-10-15T01:04:49;10.68;;;7.07;;
12214;SDS011;6170;42.206;24.142;2022-10-15T01:07:19;10.48;;;7.40;;
12214;SDS011;6170;42.206;24.142;2022-10-15T01:09:46;7.47;;;6.43;;
12214;SDS011;6170;42.206;24.142;2022-10-15T01:12:15;7.88;;;6.70;;
12214;SDS011;6170;42.206;24.142;2022-10-15T01:14:48;10.30;;;6.65;;
12214;SDS011;6170;42.206;24.142;2022-10-15T01:17:24;6.80;;;6.10;;
12214;SDS011;6170;42.206;24.142;2022-10-15T01:23:10;6.50;;;5.70;;
12214;SDS011;6170;42.206;24.142;2022-10-15T01:26:02;9.13;;;6.00;;
12214;SDS011;6170;42.206;24.142;2022-10-15T01:28:45;10.85;;;6.63;;
12214;SDS011;6170;42.206;24.142;2022-10-15T01:31:25;9.23;;;6.25;;
12214;SDS011;6170;42.206;24.142;2022-10-15T01:34:00;9.10;;;6.38;;
12214;SDS011;6170;42.206;24.142;2022-10-15T01:36:36;9.20;;;6.45;;
12214;SDS011;6170;42.206;24.142;2022-10-15T01:39:11;12.75;;;6.93;;
12214;SDS011;6170;42.206;24.142;2022-10-15T01:41:42;8.90;;;7.32;;
12214;SDS011;6170;42.206;24.142;2022-10-15T01:44:14;10.20;;;6.75;;
12214;SDS011;6170;42.206;24.142;2022-10-15T01:46:48;7.18;;;6.47;;
12214;SDS011;6170;42.206;24.142;2022-10-15T01:49:22;10.20;;;7.10;;
12214;SDS011;6170;42.206;24.142;2022-10-15T01:51:53;11.65;;;6.63;;
12214;SDS011;6170;42.206;24.142;2022-10-15T01:54:24;9.45;;;7.30;;
12214;SDS011;6170;42.206;24.142;2022-10-15T01:56:53;9.52;;;7.28;;
12214;SDS011;6170;42.206;24.142;2022-10-15T01:59:22;9.20;;;7.10;;
12214;SDS011;6170;42.206;24.142;2022-10-15T02:01:53;10.15;;;6.78;;
12214;SDS011;6170;42.206;24.142;2022-10-15T02:04:23;7.97;;;6.55;;
12214;SDS011;6170;42.206;24.142;2022-10-15T02:06:52;9.40;;;6.97;;
12214;SDS011;6170;42.206;24.142;2022-10-15T02:09:30;9.15;;;6.30;;
12214;SDS011;6170;42.206;24.142;2022-10-15T02:12:07;9.88;;;6.90;;
12214;SDS011;6170;42.206;24.142;2022-10-15T02:14:43;11.77;;;6.70;;
12214;SDS011;6170;42.206;24.142;2022-10-15T02:17:21;9.93;;;7.15;;
12214;SDS011;6170;42.206;24.142;2022-10-15T02:19:56;8.23;;;6.60;;
12214;SDS011;6170;42.206;24.142;2022-10-15T02:22:31;6.65;;;5.97;;
12214;SDS011;6170;42.206;24.142;2022-10-15T02:25:03;8.30;;;6.22;;
12214;SDS011;6170;42.206;24.142;2022-10-15T02:27:34;13.27;;;7.07;;
12214;SDS011;6170;42.206;24.142;2022-10-15T02:30:03;7.63;;;6.43;;
12214;SDS011;6170;42.206;24.142;2022-10-15T02:32:35;9.80;;;7.28;;
12214;SDS011;6170;42.206;24.142;2022-10-15T02:35:06;9.00;;;6.10;;
12214;SDS011;6170;42.206;24.142;2022-10-15T02:37:36;8.02;;;6.68;;
12214;SDS011;6170;42.206;24.142;2022-10-15T02:40:08;8.15;;;6.63;;
12214;SDS011;6170;42.206;24.142;2022-10-15T02:42:36;8.43;;;6.28;;
12214;SDS011;6170;42.206;24.142;2022-10-15T02:45:04;8.77;;;6.50;;
12214;SDS011;6170;42.206;24.142;2022-10-15T02:47:31;7.00;;;6.07;;
12214;SDS011;6170;42.206;24.142;2022-10-15T02:50:00;8.32;;;6.57;;
12214;SDS011;6170;42.206;24.142;2022-10-15T02:52:27;9.23;;;6.53;;
12214;SDS011;6170;42.206;24.142;2022-10-15T02:54:54;8.25;;;6.75;;
12214;SDS011;6170;42.206;24.142;2022-10-15T02:57:21;7.07;;;6.35;;
12214;SDS011;6170;42.206;24.142;2022-10-15T02:59:48;7.63;;;6.25;;
12214;SDS011;6170;42.206;24.142;2022-10-15T03:02:15;10.48;;;6.75;;
12214;SDS011;6170;42.206;24.142;2022-10-15T03:04:42;12.13;;;6.82;;
12214;SDS011;6170;42.206;24.142;2022-10-15T03:07:11;8.88;;;6.45;;
12214;SDS011;6170;42.206;24.142;2022-10-15T03:09:38;8.85;;;7.40;;
12214;SDS011;6170;42.206;24.142;2022-10-15T03:12:05;13.05;;;7.05;;
12214;SDS011;6170;42.206;24.142;2022-10-15T03:14:32;7.72;;;6.40;;
12214;SDS011;6170;42.206;24.142;2022-10-15T03:17:00;10.38;;;6.63;;
12214;SDS011;6170;42.206;24.142;2022-10-15T03:19:27;7.10;;;5.68;;
12214;SDS011;6170;42.206;24.142;2022-10-15T03:21:53;8.65;;;6.45;;
12214;SDS011;6170;42.206;24.142;2022-10-15T03:24:22;8.75;;;6.38;;
12214;SDS011;6170;42.206;24.142;2022-10-15T03:26:49;7.85;;;6.28;;
12214;SDS011;6170;42.206;24.142;2022-10-15T03:29:16;7.25;;;5.95;;
12214;SDS011;6170;42.206;24.142;2022-10-15T03:31:43;8.13;;;5.85;;
12214;SDS011;6170;42.206;24.142;2022-10-15T03:34:09;9.18;;;6.43;;
12214;SDS011;6170;42.206;24.142;2022-10-15T03:36:36;15.02;;;5.80;;
12214;SDS011;6170;42.206;24.142;2022-10-15T03:39:03;6.85;;;6.15;;
12214;SDS011;6170;42.206;24.142;2022-10-15T03:41:33;9.13;;;7.18;;
12214;SDS011;6170;42.206;24.142;2022-10-15T03:44:00;9.43;;;7.28;;
12214;SDS011;6170;42.206;24.142;2022-10-15T03:46:27;8.52;;;7.32;;
12214;SDS011;6170;42.206;24.142;2022-10-15T03:48:54;10.73;;;7.97;;
12214;SDS011;6170;42.206;24.142;2022-10-15T03:51:21;9.93;;;7.32;;
12214;SDS011;6170;42.206;24.142;2022-10-15T03:53:48;7.88;;;6.85;;
12214;SDS011;6170;42.206;24.142;2022-10-15T03:56:15;11.35;;;7.60;;
12214;SDS011;6170;42.206;24.142;2022-10-15T03:58:43;11.23;;;7.07;;
12214;SDS011;6170;42.206;24.142;2022-10-15T04:01:10;8.65;;;6.97;;
12214;SDS011;6170;42.206;24.142;2022-10-15T04:03:39;11.23;;;6.45;;
12214;SDS011;6170;42.206;24.142;2022-10-15T04:06:06;7.55;;;6.22;;
12214;SDS011;6170;42.206;24.142;2022-10-15T04:08:33;8.95;;;6.15;;
12214;SDS011;6170;42.206;24.142;2022-10-15T04:11:00;9.88;;;6.75;;
12214;SDS011;6170;42.206;24.142;2022-10-15T04:13:27;9.95;;;6.13;;
12214;SDS011;6170;42.206;24.142;2022-10-15T04:15:56;9.45;;;6.00;;
12214;SDS011;6170;42.206;24.142;2022-10-15T04:18:23;8.68;;;6.82;;
12214;SDS011;6170;42.206;24.142;2022-10-15T04:20:49;9.13;;;6.82;;
12214;SDS011;6170;42.206;24.142;2022-10-15T04:23:17;9.27;;;7.28;;
12214;SDS011;6170;42.206;24.142;2022-10-15T04:25:43;9.80;;;7.65;;
12214;SDS011;6170;42.206;24.142;2022-10-15T04:28:11;10.60;;;7.55;;
12214;SDS011;6170;42.206;24.142;2022-10-15T04:30:38;12.63;;;9.52;;
12214;SDS011;6170;42.206;24.142;2022-10-15T04:33:06;14.98;;;10.63;;
12214;SDS011;6170;42.206;24.142;2022-10-15T04:35:34;35.45;;;19.67;;
12214;SDS011;6170;42.206;24.142;2022-10-15T04:38:01;192.07;;;74.72;;
12214;SDS011;6170;42.206;24.142;2022-10-15T04:40:27;54.60;;;26.88;;
12214;SDS011;6170;42.206;24.142;2022-10-15T04:42:54;54.55;;;27.00;;
12214;SDS011;6170;42.206;24.142;2022-10-15T04:45:21;76.68;;;33.80;;
12214;SDS011;6170;42.206;24.142;2022-10-15T04:47:48;125.25;;;45.25;;
12214;SDS011;6170;42.206;24.142;2022-10-15T04:50:16;73.90;;;32.08;;
12214;SDS011;6170;42.206;24.142;2022-10-15T04:52:43;31.40;;;14.48;;
12214;SDS011;6170;42.206;24.142;2022-10-15T04:55:10;23.27;;;12.75;;
12214;SDS011;6170;42.206;24.142;2022-10-15T04:57:37;15.98;;;10.38;;
12214;SDS011;6170;42.206;24.142;2022-10-15T05:00:04;11.43;;;8.57;;
12214;SDS011;6170;42.206;24.142;2022-10-15T05:02:32;13.55;;;9.13;;
12214;SDS011;6170;42.206;24.142;2022-10-15T05:04:59;14.23;;;9.23;;
12214;SDS011;6170;42.206;24.142;2022-10-15T05:07:27;14.65;;;9.80;;
12214;SDS011;6170;42.206;24.142;2022-10-15T05:09:54;13.40;;;9.73;;
12214;SDS011;6170;42.206;24.142;2022-10-15T05:12:21;12.30;;;9.55;;
12214;SDS011;6170;42.206;24.142;2022-10-15T05:14:48;13.73;;;9.68;;
12214;SDS011;6170;42.206;24.142;2022-10-15T05:17:14;15.00;;;10.15;;
12214;SDS011;6170;42.206;24.142;2022-10-15T05:19:41;23.02;;;11.13;;
12214;SDS011;6170;42.206;24.142;2022-10-15T05:22:08;13.85;;;10.27;;
12214;SDS011;6170;42.206;24.142;2022-10-15T05:24:36;12.93;;;10.18;;
12214;SDS011;6170;42.206;24.142;2022-10-15T05:27:03;19.65;;;10.32;;
12214;SDS011;6170;42.206;24.142;2022-10-15T05:29:30;13.70;;;10.30;;
12214;SDS011;6170;42.206;24.142;2022-10-15T05:31:57;12.85;;;9.98;;
12214;SDS011;6170;42.206;24.142;2022-10-15T05:34:24;13.45;;;9.57;;
12214;SDS011;6170;42.206;24.142;2022-10-15T05:36:54;16.90;;;9.35;;
12214;SDS011;6170;42.206;24.142;2022-10-15T05:39:21;12.90;;;9.32;;
12214;SDS011;6170;42.206;24.142;2022-10-15T05:41:49;10.90;;;8.57;;
12214;SDS011;6170;42.206;24.142;2022-10-15T05:44:17;12.35;;;9.35;;
12214;SDS011;6170;42.206;24.142;2022-10-15T05:46:44;10.15;;;8.25;;
12214;SDS011;6170;42.206;24.142;2022-10-15T05:49:11;13.73;;;9.45;;
12214;SDS011;6170;42.206;24.142;2022-10-15T05:51:38;11.93;;;9.07;;
12214;SDS011;6170;42.206;24.142;2022-10-15T05:54:05;10.82;;;8.65;;
12214;SDS011;6170;42.206;24.142;2022-10-15T05:56:31;14.40;;;9.57;;
12214;SDS011;6170;42.206;24.142;2022-10-15T05:59:00;11.75;;;8.98;;
12214;SDS011;6170;42.206;24.142;2022-10-15T06:01:27;14.18;;;9.15;;
12214;SDS011;6170;42.206;24.142;2022-10-15T06:03:54;12.50;;;9.38;;
12214;SDS011;6170;42.206;24.142;2022-10-15T06:06:21;14.20;;;9.98;;
12214;SDS011;6170;42.206;24.142;2022-10-15T06:08:51;13.77;;;9.85;;
12214;SDS011;6170;42.206;24.142;2022-10-15T06:11:19;18.98;;;10.80;;
12214;SDS011;6170;42.206;24.142;2022-10-15T06:13:46;15.52;;;10.88;;
12214;SDS011;6170;42.206;24.142;2022-10-15T06:16:15;16.17;;;9.43;;
12214;SDS011;6170;42.206;24.142;2022-10-15T06:18:42;12.45;;;8.98;;
12214;SDS011;6170;42.206;24.142;2022-10-15T06:21:10;12.43;;;8.45;;
12214;SDS011;6170;42.206;24.142;2022-10-15T06:23:37;9.75;;;7.57;;
12214;SDS011;6170;42.206;24.142;2022-10-15T06:26:04;9.52;;;7.63;;
12214;SDS011;6170;42.206;24.142;2022-10-15T06:28:33;13.18;;;7.88;;
12214;SDS011;6170;42.206;24.142;2022-10-15T06:31:00;10.00;;;7.55;;
12214;SDS011;6170;42.206;24.142;2022-10-15T06:33:29;12.10;;;7.30;;
12214;SDS011;6170;42.206;24.142;2022-10-15T06:35:59;11.15;;;7.50;;
12214;SDS011;6170;42.206;24.142;2022-10-15T06:38:27;8.88;;;7.15;;
12214;SDS011;6170;42.206;24.142;2022-10-15T06:40:54;11.65;;;6.85;;
12214;SDS011;6170;42.206;24.142;2022-10-15T06:43:21;13.80;;;7.60;;
12214;SDS011;6170;42.206;24.142;2022-10-15T06:45:49;15.93;;;7.35;;
12214;SDS011;6170;42.206;24.142;2022-10-15T06:48:16;11.20;;;7.60;;
12214;SDS011;6170;42.206;24.142;2022-10-15T06:50:44;10.10;;;7.85;;
12214;SDS011;6170;42.206;24.142;2022-10-15T06:53:11;13.30;;;8.23;;
12214;SDS011;6170;42.206;24.142;2022-10-15T06:55:38;12.20;;;8.25;;
12214;SDS011;6170;42.206;24.142;2022-10-15T06:58:05;8.60;;;7.10;;
12214;SDS011;6170;42.206;24.142;2022-10-15T07:00:32;8.27;;;6.85;;
12214;SDS011;6170;42.206;24.142;2022-10-15T07:03:01;9.95;;;7.28;;
12214;SDS011;6170;42.206;24.142;2022-10-15T07:05:30;11.75;;;8.23;;
12214;SDS011;6170;42.206;24.142;2022-10-15T07:07:59;12.02;;;7.50;;
12214;SDS011;6170;42.206;24.142;2022-10-15T07:10:26;12.13;;;7.85;;
12214;SDS011;6170;42.206;24.142;2022-10-15T07:12:53;11.75;;;7.93;;
12214;SDS011;6170;42.206;24.142;2022-10-15T07:15:20;12.23;;;7.95;;
12214;SDS011;6170;42.206;24.142;2022-10-15T07:17:47;8.88;;;7.40;;
12214;SDS011;6170;42.206;24.142;2022-10-15T07:20:16;12.48;;;7.95;;
12214;SDS011;6170;42.206;24.142;2022-10-15T07:22:43;11.70;;;8.68;;
12214;SDS011;6170;42.206;24.142;2022-10-15T07:25:12;12.00;;;9.82;;
12214;SDS011;6170;42.206;24.142;2022-10-15T07:27:39;10.38;;;7.30;;
12214;SDS011;6170;42.206;24.142;2022-10-15T07:30:06;10.65;;;7.95;;
12214;SDS011;6170;42.206;24.142;2022-10-15T07:32:34;17.98;;;8.57;;
12214;SDS011;6170;42.206;24.142;2022-10-15T07:35:01;49.80;;;22.20;;
12214;SDS011;6170;42.206;24.142;2022-10-15T07:37:28;19.63;;;10.80;;
12214;SDS011;6170;42.206;24.142;2022-10-15T07:39:55;10.73;;;6.38;;
12214;SDS011;6170;42.206;24.142;2022-10-15T07:42:24;8.02;;;5.68;;
12214;SDS011;6170;42.206;24.142;2022-10-15T07:44:50;12.00;;;6.15;;
12214;SDS011;6170;42.206;24.142;2022-10-15T07:47:17;13.13;;;5.95;;
12214;SDS011;6170;42.206;24.142;2022-10-15T07:49:44;14.20;;;8.00;;
12214;SDS011;6170;42.206;24.142;2022-10-15T07:52:11;10.70;;;6.65;;
12214;SDS011;6170;42.206;24.142;2022-10-15T07:54:38;10.30;;;6.13;;
12214;SDS011;6170;42.206;24.142;2022-10-15T07:57:05;7.80;;;5.10;;
12214;SDS011;6170;42.206;24.142;2022-10-15T07:59:34;7.15;;;4.25;;
12214;SDS011;6170;42.206;24.142;2022-10-15T08:02:01;10.77;;;5.20;;
12214;SDS011;6170;42.206;24.142;2022-10-15T08:04:28;9.80;;;6.05;;
12214;SDS011;6170;42.206;24.142;2022-10-15T08:06:55;8.95;;;5.00;;
12214;SDS011;6170;42.206;24.142;2022-10-15T08:09:22;8.00;;;4.28;;
12214;SDS011;6170;42.206;24.142;2022-10-15T08:11:49;7.22;;;4.75;;
12214;SDS011;6170;42.206;24.142;2022-10-15T08:14:16;10.68;;;4.95;;
12214;SDS011;6170;42.206;24.142;2022-10-15T08:16:44;7.35;;;4.72;;
12214;SDS011;6170;42.206;24.142;2022-10-15T08:19:11;7.82;;;5.65;;
12214;SDS011;6170;42.206;24.142;2022-10-15T08:21:41;14.18;;;7.97;;
12214;SDS011;6170;42.206;24.142;2022-10-15T08:24:08;10.85;;;8.65;;
12214;SDS011;6170;42.206;24.142;2022-10-15T08:26:35;12.15;;;9.13;;
12214;SDS011;6170;42.206;24.142;2022-10-15T08:29:02;11.27;;;7.72;;
12214;SDS011;6170;42.206;24.142;2022-10-15T08:31:29;14.40;;;6.97;;
12214;SDS011;6170;42.206;24.142;2022-10-15T08:33:59;8.63;;;6.05;;
12214;SDS011;6170;42.206;24.142;2022-10-15T08:36:26;11.80;;;6.45;;
12214;SDS011;6170;42.206;24.142;2022-10-15T08:38:53;11.07;;;6.28;;
12214;SDS011;6170;42.206;24.142;2022-10-15T08:41:22;12.45;;;6.25;;
12214;SDS011;6170;42.206;24.142;2022-10-15T08:43:54;13.25;;;5.75;;
12214;SDS011;6170;42.206;24.142;2022-10-15T08:46:22;11.88;;;5.38;;
12214;SDS011;6170;42.206;24.142;2022-10-15T08:48:56;9.90;;;4.80;;
12214;SDS011;6170;42.206;24.142;2022-10-15T08:51:27;9.57;;;5.68;;
12214;SDS011;6170;42.206;24.142;2022-10-15T08:53:59;11.63;;;4.85;;
12214;SDS011;6170;42.206;24.142;2022-10-15T08:56:31;8.60;;;4.35;;
12214;SDS011;6170;42.206;24.142;2022-10-15T08:59:02;8.95;;;4.25;;
12214;SDS011;6170;42.206;24.142;2022-10-15T09:01:36;9.40;;;3.80;;
12214;SDS011;6170;42.206;24.142;2022-10-15T09:04:15;9.15;;;4.63;;
12214;SDS011;6170;42.206;24.142;2022-10-15T09:06:49;13.93;;;4.80;;
12214;SDS011;6170;42.206;24.142;2022-10-15T09:09:24;10.15;;;4.50;;
12214;SDS011;6170;42.206;24.142;2022-10-15T09:11:58;8.38;;;3.70;;
12214;SDS011;6170;42.206;24.142;2022-10-15T09:14:37;6.45;;;4.13;;
12214;SDS011;6170;42.206;24.142;2022-10-15T09:17:13;11.50;;;5.88;;
12214;SDS011;6170;42.206;24.142;2022-10-15T09:19:46;17.85;;;8.57;;
12214;SDS011;6170;42.206;24.142;2022-10-15T09:22:16;13.63;;;6.75;;
12214;SDS011;6170;42.206;24.142;2022-10-15T09:24:44;9.68;;;6.07;;
12214;SDS011;6170;42.206;24.142;2022-10-15T09:27:11;11.98;;;5.35;;
12214;SDS011;6170;42.206;24.142;2022-10-15T09:29:50;9.80;;;4.70;;
12214;SDS011;6170;42.206;24.142;2022-10-15T09:32:27;8.98;;;5.05;;
12214;SDS011;6170;42.206;24.142;2022-10-15T09:35:03;8.88;;;4.45;;
12214;SDS011;6170;42.206;24.142;2022-10-15T09:37:41;5.90;;;4.05;;
12214;SDS011;6170;42.206;24.142;2022-10-15T09:43:02;9.38;;;3.65;;
12214;SDS011;6170;42.206;24.142;2022-10-15T09:45:31;8.40;;;3.78;;
12214;SDS011;6170;42.206;24.142;2022-10-15T09:47:59;4.40;;;3.10;;
12214;SDS011;6170;42.206;24.142;2022-10-15T09:50:33;9.45;;;4.40;;
12214;SDS011;6170;42.206;24.142;2022-10-15T09:53:09;12.13;;;4.03;;
12214;SDS011;6170;42.206;24.142;2022-10-15T09:55:45;7.85;;;5.38;;
12214;SDS011;6170;42.206;24.142;2022-10-15T10:00:54;7.68;;;4.18;;
12214;SDS011;6170;42.206;24.142;2022-10-15T10:03:23;7.30;;;4.22;;
12214;SDS011;6170;42.206;24.142;2022-10-15T10:05:59;8.48;;;3.88;;
12214;SDS011;6170;42.206;24.142;2022-10-15T10:08:31;9.32;;;3.95;;
12214;SDS011;6170;42.206;24.142;2022-10-15T10:11:03;6.57;;;3.28;;
12214;SDS011;6170;42.206;24.142;2022-10-15T10:13:43;5.47;;;3.50;;
12214;SDS011;6170;42.206;24.142;2022-10-15T10:16:11;5.30;;;3.35;;
12214;SDS011;6170;42.206;24.142;2022-10-15T10:18:40;5.35;;;3.28;;
12214;SDS011;6170;42.206;24.142;2022-10-15T10:21:23;4.82;;;3.13;;
12214;SDS011;6170;42.206;24.142;2022-10-15T10:23:51;5.70;;;3.35;;
12214;SDS011;6170;42.206;24.142;2022-10-15T10:26:18;9.02;;;3.65;;
12214;SDS011;6170;42.206;24.142;2022-10-15T10:28:48;10.15;;;3.83;;
12214;SDS011;6170;42.206;24.142;2022-10-15T10:31:17;7.40;;;3.63;;
12214;SDS011;6170;42.206;24.142;2022-10-15T10:33:53;7.40;;;3.60;;
12214;SDS011;6170;42.206;24.142;2022-10-15T10:36:25;4.78;;;3.00;;
12214;SDS011;6170;42.206;24.142;2022-10-15T10:38:55;4.40;;;3.00;;
12214;SDS011;6170;42.206;24.142;2022-10-15T10:44:25;4.60;;;3.05;;
12214;SDS011;6170;42.206;24.142;2022-10-15T10:47:08;4.72;;;2.90;;
12214;SDS011;6170;42.206;24.142;2022-10-15T10:49:38;4.80;;;2.63;;
12214;SDS011;6170;42.206;24.142;2022-10-15T10:52:18;2.20;;;2.00;;
12214;SDS011;6170;42.206;24.142;2022-10-15T10:54:52;4.95;;;2.03;;
12214;SDS011;6170;42.206;24.142;2022-10-15T10:57:25;4.22;;;2.00;;
12214;SDS011;6170;42.206;24.142;2022-10-15T10:59:58;3.05;;;2.67;;
12214;SDS011;6170;42.206;24.142;2022-10-15T11:02:28;3.80;;;2.38;;
12214;SDS011;6170;42.206;24.142;2022-10-15T11:04:58;5.88;;;2.30;;
12214;SDS011;6170;42.206;24.142;2022-10-15T11:07:27;4.43;;;2.30;;
12214;SDS011;6170;42.206;24.142;2022-10-15T11:10:04;3.50;;;2.20;;
12214;SDS011;6170;42.206;24.142;2022-10-15T11:12:49;3.17;;;2.00;;
12214;SDS011;6170;42.206;24.142;2022-10-15T11:15:32;3.10;;;2.05;;
12214;SDS011;6170;42.206;24.142;2022-10-15T11:18:30;3.67;;;1.92;;
12214;SDS011;6170;42.206;24.142;2022-10-15T11:21:07;2.88;;;1.90;;
12214;SDS011;6170;42.206;24.142;2022-10-15T11:23:48;2.20;;;1.90;;
12214;SDS011;6170;42.206;24.142;2022-10-15T11:26:29;3.30;;;1.98;;
12214;SDS011;6170;42.206;24.142;2022-10-15T11:29:09;3.33;;;2.10;;
12214;SDS011;6170;42.206;24.142;2022-10-15T11:31:44;3.40;;;2.13;;
12214;SDS011;6170;42.206;24.142;2022-10-15T11:34:20;2.63;;;2.10;;
12214;SDS011;6170;42.206;24.142;2022-10-15T11:36:59;3.72;;;2.60;;
12214;SDS011;6170;42.206;24.142;2022-10-15T11:39:41;4.05;;;1.92;;
12214;SDS011;6170;42.206;24.142;2022-10-15T11:42:21;2.85;;;1.85;;
12214;SDS011;6170;42.206;24.142;2022-10-15T11:44:57;3.30;;;2.05;;
12214;SDS011;6170;42.206;24.142;2022-10-15T11:47:34;2.40;;;2.08;;
12214;SDS011;6170;42.206;24.142;2022-10-15T11:50:16;3.53;;;2.00;;
12214;SDS011;6170;42.206;24.142;2022-10-15T11:52:54;3.38;;;2.40;;
12214;SDS011;6170;42.206;24.142;2022-10-15T11:55:34;3.42;;;2.40;;
12214;SDS011;6170;42.206;24.142;2022-10-15T11:58:05;3.05;;;2.42;;
12214;SDS011;6170;42.206;24.142;2022-10-15T12:00:39;6.72;;;2.50;;
12214;SDS011;6170;42.206;24.142;2022-10-15T12:03:13;5.25;;;2.50;;
12214;SDS011;6170;42.206;24.142;2022-10-15T12:05:44;4.82;;;2.70;;
12214;SDS011;6170;42.206;24.142;2022-10-15T12:08:15;4.30;;;2.40;;
12214;SDS011;6170;42.206;24.142;2022-10-15T12:10:50;5.68;;;2.42;;
12214;SDS011;6170;42.206;24.142;2022-10-15T12:13:28;4.10;;;2.67;;
12214;SDS011;6170;42.206;24.142;2022-10-15T12:16:07;2.90;;;2.03;;
12214;SDS011;6170;42.206;24.142;2022-10-15T12:18:43;4.35;;;2.40;;
12214;SDS011;6170;42.206;24.142;2022-10-15T12:21:32;2.92;;;2.13;;
12214;SDS011;6170;42.206;24.142;2022-10-15T12:24:01;4.25;;;2.70;;
12214;SDS011;6170;42.206;24.142;2022-10-15T12:26:36;3.97;;;2.65;;
12214;SDS011;6170;42.206;24.142;2022-10-15T12:29:04;3.75;;;2.38;;
12214;SDS011;6170;42.206;24.142;2022-10-15T12:31:42;2.85;;;2.45;;
12214;SDS011;6170;42.206;24.142;2022-10-15T12:34:28;3.97;;;2.50;;
12214;SDS011;6170;42.206;24.142;2022-10-15T12:37:01;5.97;;;2.63;;
12214;SDS011;6170;42.206;24.142;2022-10-15T12:39:30;2.35;;;1.95;;
12214;SDS011;6170;42.206;24.142;2022-10-15T12:41:59;3.45;;;2.33;;
12214;SDS011;6170;42.206;24.142;2022-10-15T12:44:27;3.80;;;2.55;;
12214;SDS011;6170;42.206;24.142;2022-10-15T12:46:55;3.03;;;2.00;;
12214;SDS011;6170;42.206;24.142;2022-10-15T12:55:21;2.85;;;2.17;;
12214;SDS011;6170;42.206;24.142;2022-10-15T12:57:56;3.35;;;2.38;;
12214;SDS011;6170;42.206;24.142;2022-10-15T13:00:32;4.93;;;2.22;;
12214;SDS011;6170;42.206;24.142;2022-10-15T13:03:08;5.28;;;2.67;;
12214;SDS011;6170;42.206;24.142;2022-10-15T13:06:11;3.78;;;2.60;;
12214;SDS011;6170;42.206;24.142;2022-10-15T13:08:42;6.13;;;2.72;;
12214;SDS011;6170;42.206;24.142;2022-10-15T13:11:16;4.75;;;2.80;;
12214;SDS011;6170;42.206;24.142;2022-10-15T13:13:47;3.47;;;2.28;;
12214;SDS011;6170;42.206;24.142;2022-10-15T13:16:16;3.03;;;2.30;;
12214;SDS011;6170;42.206;24.142;2022-10-15T13:18:46;3.67;;;2.33;;
12214;SDS011;6170;42.206;24.142;2022-10-15T13:21:15;3.50;;;2.40;;
12214;SDS011;6170;42.206;24.142;2022-10-15T13:23:46;4.05;;;2.17;;
12214;SDS011;6170;42.206;24.142;2022-10-15T13:26:18;5.28;;;2.42;;
12214;SDS011;6170;42.206;24.142;2022-10-15T13:31:18;3.95;;;2.25;;
12214;SDS011;6170;42.206;24.142;2022-10-15T13:33:50;5.43;;;2.80;;
12214;SDS011;6170;42.206;24.142;2022-10-15T13:36:20;4.70;;;2.63;;
12214;SDS011;6170;42.206;24.142;2022-10-15T13:38:51;10.50;;;2.65;;
12214;SDS011;6170;42.206;24.142;2022-10-15T13:41:22;4.03;;;2.65;;
12214;SDS011;6170;42.206;24.142;2022-10-15T13:43:55;8.05;;;2.40;;
12214;SDS011;6170;42.206;24.142;2022-10-15T13:46:25;4.20;;;2.53;;
12214;SDS011;6170;42.206;24.142;2022-10-15T13:48:57;6.38;;;3.05;;
12214;SDS011;6170;42.206;24.142;2022-10-15T13:51:37;4.88;;;2.97;;
12214;SDS011;6170;42.206;24.142;2022-10-15T13:54:07;5.45;;;2.63;;
12214;SDS011;6170;42.206;24.142;2022-10-15T13:56:36;3.33;;;2.30;;
12214;SDS011;6170;42.206;24.142;2022-10-15T13:59:12;3.65;;;2.58;;
12214;SDS011;6170;42.206;24.142;2022-10-15T14:01:44;9.93;;;2.85;;
12214;SDS011;6170;42.206;24.142;2022-10-15T14:04:14;5.32;;;2.15;;
12214;SDS011;6170;42.206;24.142;2022-10-15T14:06:44;4.20;;;2.90;;
12214;SDS011;6170;42.206;24.142;2022-10-15T14:09:21;3.78;;;2.40;;
12214;SDS011;6170;42.206;24.142;2022-10-15T14:11:52;5.57;;;2.78;;
12214;SDS011;6170;42.206;24.142;2022-10-15T14:14:28;3.50;;;2.33;;
12214;SDS011;6170;42.206;24.142;2022-10-15T14:16:57;3.72;;;3.00;;
12214;SDS011;6170;42.206;24.142;2022-10-15T14:19:26;4.53;;;2.60;;
12214;SDS011;6170;42.206;24.142;2022-10-15T14:21:55;4.45;;;2.67;;
12214;SDS011;6170;42.206;24.142;2022-10-15T14:24:25;4.25;;;2.50;;
12214;SDS011;6170;42.206;24.142;2022-10-15T14:26:59;4.22;;;2.50;;
12214;SDS011;6170;42.206;24.142;2022-10-15T14:29:36;5.00;;;2.22;;
12214;SDS011;6170;42.206;24.142;2022-10-15T14:34:57;5.68;;;2.67;;
12214;SDS011;6170;42.206;24.142;2022-10-15T14:37:36;5.95;;;2.80;;
12214;SDS011;6170;42.206;24.142;2022-10-15T14:40:12;4.93;;;2.50;;
12214;SDS011;6170;42.206;24.142;2022-10-15T14:42:42;5.50;;;2.33;;
12214;SDS011;6170;42.206;24.142;2022-10-15T14:45:17;5.15;;;2.75;;
12214;SDS011;6170;42.206;24.142;2022-10-15T14:47:47;7.50;;;2.50;;
12214;SDS011;6170;42.206;24.142;2022-10-15T14:50:16;3.70;;;2.20;;
12214;SDS011;6170;42.206;24.142;2022-10-15T14:52:45;6.78;;;2.72;;
12214;SDS011;6170;42.206;24.142;2022-10-15T14:55:24;6.13;;;2.78;;
12214;SDS011;6170;42.206;24.142;2022-10-15T14:57:58;3.30;;;2.65;;
12214;SDS011;6170;42.206;24.142;2022-10-15T15:00:30;6.25;;;2.53;;
12214;SDS011;6170;42.206;24.142;2022-10-15T15:03:00;6.68;;;2.97;;
12214;SDS011;6170;42.206;24.142;2022-10-15T15:05:29;3.83;;;2.67;;
12214;SDS011;6170;42.206;24.142;2022-10-15T15:07:56;7.55;;;2.83;;
12214;SDS011;6170;42.206;24.142;2022-10-15T15:10:23;4.68;;;2.70;;
12214;SDS011;6170;42.206;24.142;2022-10-15T15:12:52;4.70;;;2.53;;
12214;SDS011;6170;42.206;24.142;2022-10-15T15:15:22;4.90;;;2.25;;
12214;SDS011;6170;42.206;24.142;2022-10-15T15:17:52;7.38;;;2.80;;
12214;SDS011;6170;42.206;24.142;2022-10-15T15:20:19;5.43;;;2.60;;
12214;SDS011;6170;42.206;24.142;2022-10-15T15:22:48;4.60;;;2.97;;
12214;SDS011;6170;42.206;24.142;2022-10-15T15:25:17;6.50;;;3.40;;
12214;SDS011;6170;42.206;24.142;2022-10-15T15:27:46;7.25;;;3.92;;